sim
Sign-in with your pilot id or email,
or register
Callsign
Passwort

Schedule Details

Flight Number: RYR7777 (4)
Departure: Chania International Airport (LGSA) at 13:40
Arrival: Thessaloniki International Airport (LGTS) at 15:00
Route: Ryanair Passenger Schedule. Enter filed route here before submitting Pirep.

Weather Information
Getting current METAR information for LGSA 211220Z 34005KT 9999 FEW020 17/12 Q1021
Getting current METAR information for LGTS 211220Z 34013KT 9999 FEW030 16/00 Q1022 NOSIG

Schedule Frequency

Route Map